createdAt,value
2023-05-24T00:00:48.352Z,1919.00
2023-05-24T00:01:48.287Z,1910.00
2023-05-24T00:02:48.335Z,1926.00
2023-05-24T00:03:48.356Z,1900.00
2023-05-24T00:04:48.298Z,1860.00
2023-05-24T00:05:48.230Z,1855.00
2023-05-24T00:06:48.277Z,1848.00
2023-05-24T00:07:48.218Z,1842.00
2023-05-24T00:08:48.193Z,1830.00
2023-05-24T00:09:48.176Z,1834.00
2023-05-24T00:10:48.163Z,1761.00
2023-05-24T00:11:48.154Z,1727.00
2023-05-24T00:12:48.135Z,1767.00
2023-05-24T00:13:48.126Z,1729.00
2023-05-24T00:14:48.104Z,1721.00
2023-05-24T00:15:48.126Z,1755.00
2023-05-24T00:16:48.086Z,1759.00
2023-05-24T00:17:48.109Z,1812.00
2023-05-24T00:18:48.066Z,1805.00
2023-05-24T00:19:48.075Z,1813.00
2023-05-24T00:20:48.330Z,1790.00
2023-05-24T00:21:48.035Z,1807.00
2023-05-24T00:22:48.018Z,1828.00
2023-05-24T00:23:48.012Z,1808.00
2023-05-24T00:24:48.027Z,1805.00
2023-05-24T00:25:47.988Z,1801.00
2023-05-24T00:26:47.991Z,1741.00
2023-05-24T00:27:47.982Z,1786.00
2023-05-24T00:28:47.963Z,1810.00
2023-05-24T00:29:48.022Z,1797.00
2023-05-24T00:30:47.997Z,1809.00
2023-05-24T00:31:47.934Z,1808.00
2023-05-24T00:32:47.951Z,1822.00
2023-05-24T00:33:47.971Z,1828.00
2023-05-24T00:34:47.899Z,1843.00
2023-05-24T00:35:47.918Z,1844.00
2023-05-24T00:36:47.956Z,1833.00
2023-05-24T00:37:47.874Z,1854.00
2023-05-24T00:38:47.874Z,1859.00
2023-05-24T00:39:47.837Z,1835.00
2023-05-24T00:40:47.838Z,1861.00
2023-05-24T00:41:47.814Z,1874.00
2023-05-24T00:42:47.803Z,1868.00
2023-05-24T00:43:47.786Z,1879.00
2023-05-24T00:44:47.778Z,1864.00
2023-05-24T00:45:47.810Z,1881.00
2023-05-24T00:46:47.744Z,1855.00
2023-05-24T00:47:47.768Z,1840.00
2023-05-24T00:48:47.723Z,1854.00
2023-05-24T00:49:47.713Z,1853.00
2023-05-24T00:50:47.706Z,1852.00
2023-05-24T00:51:47.690Z,1840.00
2023-05-24T00:52:47.697Z,1865.00
2023-05-24T00:53:47.685Z,1898.00
2023-05-24T00:54:47.657Z,1890.00
2023-05-24T00:55:47.666Z,1899.00
2023-05-24T00:56:47.693Z,1896.00
2023-05-24T00:57:47.719Z,1912.00
2023-05-24T00:58:47.650Z,1901.00
2023-05-24T00:59:47.689Z,1911.00
2023-05-24T01:00:47.608Z,1947.00
2023-05-24T01:01:47.646Z,1944.00
2023-05-24T01:02:47.693Z,1923.00
2023-05-24T01:03:47.673Z,1949.00
2023-05-24T01:04:47.556Z,1962.00
2023-05-24T01:05:47.563Z,1964.00
2023-05-24T01:06:47.527Z,1967.00
2023-05-24T01:07:47.529Z,1963.00
2023-05-24T01:08:47.519Z,1961.00
2023-05-24T01:09:47.506Z,1963.00
2023-05-24T01:10:47.505Z,1956.00
2023-05-24T01:11:47.486Z,1959.00
2023-05-24T01:12:47.499Z,1962.00
2023-05-24T01:13:47.512Z,1974.00
2023-05-24T01:14:47.467Z,1953.00
2023-05-24T01:15:47.499Z,1971.00
2023-05-24T01:16:47.462Z,1983.00
2023-05-24T01:17:47.502Z,1984.00
2023-05-24T01:18:47.461Z,1985.00
2023-05-24T01:19:47.430Z,1990.00
2023-05-24T01:20:47.695Z,1999.00
2023-05-24T01:21:47.433Z,2022.00
2023-05-24T01:22:47.409Z,1985.00
2023-05-24T01:23:47.392Z,1986.00
2023-05-24T01:24:47.380Z,1993.00
2023-05-24T01:25:47.388Z,2013.00
2023-05-24T01:26:47.368Z,2029.00
2023-05-24T01:27:47.384Z,2054.00
2023-05-24T01:28:47.348Z,2073.00
2023-05-24T01:29:47.343Z,2062.00
2023-05-24T01:30:47.354Z,2051.00
2023-05-24T01:31:47.429Z,2078.00
2023-05-24T01:32:47.355Z,2094.00
2023-05-24T01:33:47.288Z,2081.00
2023-05-24T01:34:47.305Z,2047.00
2023-05-24T01:35:47.340Z,2043.00
2023-05-24T01:36:47.261Z,2030.00
2023-05-24T01:37:47.270Z,2055.00
2023-05-24T01:38:47.256Z,2063.00
2023-05-24T01:39:47.225Z,2055.00
2023-05-24T01:40:47.227Z,2072.00
2023-05-24T01:41:47.248Z,2075.00
2023-05-24T01:42:47.266Z,2060.00
2023-05-24T01:43:47.271Z,2052.00
2023-05-24T01:44:47.307Z,2064.00
2023-05-24T01:45:47.328Z,2064.00
2023-05-24T01:46:47.385Z,2051.00
2023-05-24T01:47:47.370Z,2048.00
2023-05-24T01:48:47.382Z,2061.00
2023-05-24T01:49:47.453Z,2070.00
2023-05-24T01:50:47.474Z,2075.00
2023-05-24T01:51:47.599Z,2086.00
2023-05-24T01:52:47.539Z,2079.00
2023-05-24T01:53:47.680Z,2084.00
2023-05-24T01:54:47.575Z,2096.00
2023-05-24T01:55:47.576Z,2102.00
2023-05-24T01:56:47.593Z,2095.00
2023-05-24T01:57:47.581Z,2078.00
2023-05-24T01:58:47.581Z,2093.00
2023-05-24T01:59:47.572Z,2073.00
2023-05-24T02:00:47.587Z,2080.00
2023-05-24T02:01:47.560Z,2084.00
2023-05-24T02:02:47.628Z,2092.00
2023-05-24T02:03:47.556Z,2088.00
2023-05-24T02:04:47.607Z,2105.00
2023-05-24T02:05:47.564Z,2103.00
2023-05-24T02:06:47.569Z,2108.00
2023-05-24T02:07:47.538Z,2115.00
2023-05-24T02:08:47.596Z,2100.00
2023-05-24T02:09:47.566Z,2100.00
2023-05-24T02:10:47.580Z,2096.00
2023-05-24T02:11:47.582Z,2107.00
2023-05-24T02:12:47.537Z,2127.00
2023-05-24T02:13:47.528Z,2112.00
2023-05-24T02:14:47.512Z,2112.00
2023-05-24T02:15:47.513Z,2114.00
2023-05-24T02:16:47.536Z,2113.00
2023-05-24T02:17:47.642Z,2138.00
2023-05-24T02:18:47.498Z,2146.00
2023-05-24T02:19:47.531Z,2148.00
2023-05-24T02:20:47.478Z,2157.00
2023-05-24T02:21:47.484Z,2130.00
2023-05-24T02:22:47.472Z,2132.00
2023-05-24T02:23:47.500Z,2151.00
2023-05-24T02:24:47.478Z,2151.00
2023-05-24T02:25:47.484Z,2142.00
2023-05-24T02:26:47.487Z,2141.00
2023-05-24T02:27:47.487Z,2148.00
2023-05-24T02:28:47.462Z,2133.00
2023-05-24T02:29:47.472Z,2160.00
2023-05-24T02:30:47.585Z,2167.00
2023-05-24T02:31:47.468Z,2168.00
2023-05-24T02:32:47.469Z,2155.00
2023-05-24T02:33:47.458Z,2157.00
2023-05-24T02:34:47.426Z,2158.00
2023-05-24T02:35:47.418Z,2160.00
2023-05-24T02:36:47.425Z,2171.00
2023-05-24T02:37:47.426Z,2186.00
2023-05-24T02:38:47.403Z,2208.00
2023-05-24T02:39:47.372Z,2198.00
2023-05-24T02:40:47.368Z,2204.00
2023-05-24T02:41:47.363Z,2215.00
2023-05-24T02:42:47.340Z,2222.00
2023-05-24T02:43:47.334Z,2223.00
2023-05-24T02:44:47.326Z,2223.00
2023-05-24T02:45:47.311Z,2223.00
2023-05-24T02:46:47.437Z,2218.00
2023-05-24T02:47:47.361Z,2207.00
2023-05-24T02:48:47.299Z,2204.00
2023-05-24T02:49:47.299Z,2202.00
2023-05-24T02:50:47.279Z,2203.00
2023-05-24T02:51:47.271Z,2204.00
2023-05-24T02:52:47.247Z,2204.00
2023-05-24T02:53:47.253Z,2220.00
2023-05-24T02:54:47.250Z,2229.00
2023-05-24T02:55:47.242Z,2247.00
2023-05-24T02:56:47.219Z,2242.00
2023-05-24T02:57:47.222Z,2231.00
2023-05-24T02:58:47.218Z,2242.00
2023-05-24T02:59:47.219Z,2237.00
2023-05-24T03:00:47.209Z,2232.00
2023-05-24T03:01:47.213Z,2230.00
2023-05-24T03:02:47.240Z,2239.00
2023-05-24T03:03:47.283Z,2236.00
2023-05-24T03:04:47.187Z,2223.00
2023-05-24T03:05:47.220Z,2243.00
2023-05-24T03:06:47.181Z,2251.00
2023-05-24T03:07:47.175Z,2251.00
2023-05-24T03:08:47.155Z,2253.00
2023-05-24T03:09:47.147Z,2240.00
2023-05-24T03:10:47.136Z,2251.00
2023-05-24T03:11:47.156Z,2258.00
2023-05-24T03:12:47.137Z,2251.00
2023-05-24T03:13:47.146Z,2249.00
2023-05-24T03:14:47.138Z,2258.00
2023-05-24T03:15:47.168Z,2235.00
2023-05-24T03:16:47.096Z,2221.00
2023-05-24T03:17:47.172Z,2250.00
2023-05-24T03:18:47.093Z,2268.00
2023-05-24T03:19:47.083Z,2268.00
2023-05-24T03:20:47.119Z,2266.00
2023-05-24T03:21:47.060Z,2274.00
2023-05-24T03:22:47.076Z,2260.00
2023-05-24T03:23:47.053Z,2273.00
2023-05-24T03:24:47.045Z,2270.00
2023-05-24T03:25:47.039Z,2283.00
2023-05-24T03:26:47.016Z,2286.00
2023-05-24T03:27:47.001Z,2293.00
2023-05-24T03:28:46.999Z,2305.00
2023-05-24T03:29:46.981Z,2307.00
2023-05-24T03:30:47.001Z,2296.00
2023-05-24T03:31:47.063Z,2294.00
2023-05-24T03:32:47.025Z,2286.00
2023-05-24T03:33:46.979Z,2276.00
2023-05-24T03:34:46.977Z,2295.00
2023-05-24T03:35:46.936Z,2278.00
2023-05-24T03:36:46.937Z,2291.00
2023-05-24T03:37:46.914Z,2283.00
2023-05-24T03:38:46.886Z,2300.00
2023-05-24T03:39:46.887Z,2294.00
2023-05-24T03:40:46.881Z,2296.00
2023-05-24T03:41:46.890Z,2282.00
2023-05-24T03:42:46.856Z,2285.00
2023-05-24T03:43:46.849Z,2286.00
2023-05-24T03:44:46.828Z,2288.00
2023-05-24T03:45:46.851Z,2286.00
2023-05-24T03:46:46.826Z,2286.00
2023-05-24T03:47:46.831Z,2288.00
2023-05-24T03:48:46.793Z,2288.00
2023-05-24T03:49:46.800Z,2268.00
2023-05-24T03:50:46.781Z,2272.00
2023-05-24T03:51:46.777Z,2257.00
2023-05-24T03:52:46.772Z,2240.00
2023-05-24T03:53:46.797Z,2252.00
2023-05-24T03:54:46.772Z,2242.00
2023-05-24T03:55:47.075Z,2245.00
2023-05-24T03:56:46.747Z,2253.00
2023-05-24T03:57:46.736Z,2233.00
2023-05-24T03:58:46.759Z,2241.00
2023-05-24T03:59:46.726Z,2225.00
2023-05-24T04:00:46.713Z,2236.00
2023-05-24T04:01:46.688Z,2238.00
2023-05-24T04:02:46.729Z,2240.00
2023-05-24T04:03:46.698Z,2231.00
2023-05-24T04:04:46.657Z,2222.00
2023-05-24T04:05:46.650Z,2211.00
2023-05-24T04:06:46.649Z,2194.00
2023-05-24T04:07:46.666Z,2165.00
2023-05-24T04:08:46.616Z,2149.00
2023-05-24T04:09:46.613Z,2160.00
2023-05-24T04:10:46.607Z,2159.00
2023-05-24T04:11:46.609Z,2124.00
2023-05-24T04:12:46.593Z,2120.00
2023-05-24T04:13:46.587Z,2121.00
2023-05-24T04:14:46.579Z,2120.00
2023-05-24T04:15:46.582Z,2104.00
2023-05-24T04:16:46.569Z,2103.00
2023-05-24T04:17:46.740Z,2102.00
2023-05-24T04:18:46.727Z,2093.00
2023-05-24T04:19:46.577Z,2082.00
2023-05-24T04:20:46.597Z,2068.00
2023-05-24T04:21:46.650Z,2073.00
2023-05-24T04:22:46.593Z,2056.00
2023-05-24T04:23:46.592Z,2039.00
2023-05-24T04:24:46.593Z,2032.00
2023-05-24T04:25:46.599Z,2028.00
2023-05-24T04:26:46.603Z,2025.00
2023-05-24T04:27:46.601Z,2032.00
2023-05-24T04:28:46.616Z,2023.00
2023-05-24T04:29:46.612Z,1991.00
2023-05-24T04:30:46.624Z,1959.00
2023-05-24T04:31:46.676Z,1988.00
2023-05-24T04:32:46.746Z,1954.00
2023-05-24T04:33:46.613Z,1948.00
2023-05-24T04:34:46.646Z,1959.00
2023-05-24T04:35:46.622Z,1968.00
2023-05-24T04:36:46.629Z,1934.00
2023-05-24T04:37:46.658Z,1916.00
2023-05-24T04:38:46.623Z,1914.00
2023-05-24T04:39:46.653Z,1915.00
2023-05-24T04:40:46.619Z,1917.00
2023-05-24T04:41:46.630Z,1921.00
2023-05-24T04:42:46.628Z,1919.00
2023-05-24T04:43:46.628Z,1913.00
2023-05-24T04:44:46.633Z,1920.00
2023-05-24T04:45:46.629Z,1929.00
2023-05-24T04:46:46.689Z,1920.00
2023-05-24T04:47:46.684Z,1934.00
2023-05-24T04:48:46.609Z,1933.00
2023-05-24T04:49:46.683Z,1923.00
2023-05-24T04:50:46.639Z,1883.00
2023-05-24T04:51:46.636Z,1890.00
2023-05-24T04:52:46.672Z,1896.00
2023-05-24T04:53:46.645Z,1921.00
2023-05-24T04:54:46.623Z,1908.00
2023-05-24T04:55:46.645Z,1876.00
2023-05-24T04:56:46.650Z,1886.00
2023-05-24T04:57:46.677Z,1887.00
2023-05-24T04:58:46.626Z,1873.00
2023-05-24T04:59:46.601Z,1851.00
2023-05-24T05:00:46.582Z,1840.00
2023-05-24T05:01:46.673Z,1846.00
2023-05-24T05:02:46.652Z,1840.00
2023-05-24T05:03:46.628Z,1834.00
2023-05-24T05:04:46.567Z,1855.00
2023-05-24T05:05:46.613Z,1864.00
2023-05-24T05:06:46.555Z,1866.00
2023-05-24T05:07:46.515Z,1848.00
2023-05-24T05:08:46.531Z,1777.00
2023-05-24T05:09:46.488Z,1800.00
2023-05-24T05:10:46.484Z,1809.00
2023-05-24T05:11:46.489Z,1817.00
2023-05-24T05:12:46.480Z,1826.00
2023-05-24T05:13:46.468Z,1848.00
2023-05-24T05:14:46.471Z,1855.00
2023-05-24T05:15:46.456Z,1844.00
2023-05-24T05:16:46.744Z,1828.00
2023-05-24T05:17:46.446Z,1812.00
2023-05-24T05:18:46.435Z,1793.00
2023-05-24T05:19:46.422Z,1789.00
2023-05-24T05:20:46.716Z,1774.00
2023-05-24T05:21:46.406Z,1792.00
2023-05-24T05:22:46.370Z,1783.00
2023-05-24T05:23:46.379Z,1771.00
2023-05-24T05:24:46.352Z,1791.00
2023-05-24T05:25:46.362Z,1787.00
2023-05-24T05:26:46.371Z,1802.00
2023-05-24T05:27:46.388Z,1779.00
2023-05-24T05:28:46.343Z,1778.00
2023-05-24T05:29:46.341Z,1802.00
2023-05-24T05:30:46.373Z,1810.00
2023-05-24T05:31:46.360Z,1822.00
2023-05-24T05:32:46.554Z,1836.00
2023-05-24T05:33:46.385Z,1899.00
2023-05-24T05:34:46.360Z,1954.00
2023-05-24T05:35:46.343Z,2003.00
2023-05-24T05:36:46.354Z,2067.00
2023-05-24T05:37:46.400Z,2119.00
2023-05-24T05:38:46.401Z,2188.00
2023-05-24T05:39:46.350Z,2256.00
2023-05-24T05:40:46.349Z,2258.00
2023-05-24T05:41:46.372Z,2278.00
2023-05-24T05:42:46.318Z,2319.00
2023-05-24T05:43:46.304Z,2393.00
2023-05-24T05:44:46.364Z,2264.00
2023-05-24T05:45:46.384Z,2294.00
2023-05-24T05:46:46.538Z,2265.00
2023-05-24T05:47:46.306Z,2299.00
2023-05-24T05:48:46.574Z,2377.00
2023-05-24T05:49:46.254Z,2523.00
2023-05-24T05:50:46.294Z,2712.00
2023-05-24T05:51:46.237Z,2777.00
2023-05-24T05:52:46.222Z,2794.00
2023-05-24T05:53:46.312Z,2794.00
2023-05-24T05:54:46.310Z,2811.00
2023-05-24T05:55:46.295Z,2842.00
2023-05-24T05:56:46.368Z,2834.00
2023-05-24T05:57:46.425Z,2843.00
2023-05-24T05:58:46.466Z,2838.00
2023-05-24T05:59:46.507Z,2864.00
2023-05-24T06:00:46.646Z,2889.00
2023-05-24T06:01:46.634Z,2902.00
2023-05-24T06:02:46.955Z,2904.00
2023-05-24T06:03:46.961Z,2900.00
2023-05-24T06:04:46.791Z,2909.00
2023-05-24T06:05:46.830Z,2902.00
2023-05-24T06:06:46.898Z,2907.00
2023-05-24T06:07:46.894Z,2919.00
2023-05-24T06:08:46.912Z,2881.00
2023-05-24T06:09:46.928Z,2890.00
2023-05-24T06:10:46.980Z,2881.00
2023-05-24T06:11:47.077Z,2875.00
2023-05-24T06:12:47.056Z,2868.00
2023-05-24T06:13:47.134Z,2847.00
2023-05-24T06:14:47.009Z,2862.00
2023-05-24T06:15:47.156Z,2856.00
2023-05-24T06:16:47.120Z,2835.00
2023-05-24T06:17:47.159Z,2829.00
2023-05-24T06:18:57.056Z,2781.00
2023-05-24T06:19:48.126Z,2782.00
2023-05-24T06:20:47.250Z,2771.00
2023-05-24T06:21:47.113Z,2759.00
2023-05-24T06:22:47.286Z,2743.00
2023-05-24T06:23:47.197Z,2734.00
2023-05-24T06:24:47.062Z,2693.00
2023-05-24T06:25:47.055Z,2693.00
2023-05-24T06:26:47.489Z,2667.00
2023-05-24T06:27:47.356Z,2651.00
2023-05-24T06:28:47.029Z,2639.00
2023-05-24T06:29:47.079Z,2657.00
2023-05-24T06:30:47.141Z,2630.00
2023-05-24T06:31:47.173Z,2647.00
2023-05-24T06:32:47.028Z,2640.00
2023-05-24T06:33:55.981Z,2641.00
2023-05-24T06:34:47.997Z,2641.00
2023-05-24T06:35:46.995Z,2641.00
2023-05-24T06:36:46.983Z,2640.00
2023-05-24T06:37:46.992Z,2608.00
2023-05-24T06:38:46.976Z,2596.00
2023-05-24T06:39:46.953Z,2599.00
2023-05-24T06:40:47.050Z,2578.00
2023-05-24T06:41:47.128Z,2574.00
2023-05-24T06:42:46.935Z,2603.00
2023-05-24T06:43:46.939Z,2620.00
2023-05-24T06:44:46.921Z,2659.00
2023-05-24T06:45:46.943Z,2642.00
2023-05-24T06:46:47.034Z,2649.00
2023-05-24T06:47:47.151Z,2640.00
2023-05-24T06:48:47.200Z,2620.00
2023-05-24T06:49:47.162Z,2650.00
2023-05-24T06:50:47.349Z,2676.00
2023-05-24T06:51:47.257Z,2695.00
2023-05-24T06:52:47.373Z,2687.00
2023-05-24T06:53:47.328Z,2688.00
2023-05-24T06:54:47.297Z,2683.00
2023-05-24T06:55:47.319Z,2702.00
2023-05-24T06:56:47.287Z,2730.00
2023-05-24T06:57:47.249Z,2800.00
2023-05-24T06:58:47.218Z,2834.00
2023-05-24T06:59:47.202Z,2851.00
2023-05-24T07:00:47.227Z,2876.00
2023-05-24T07:01:47.258Z,2861.00
2023-05-24T07:02:47.302Z,2831.00
2023-05-24T07:03:47.335Z,2856.00
2023-05-24T07:04:47.405Z,2876.00
2023-05-24T07:05:47.432Z,2873.00
2023-05-24T07:06:47.480Z,2895.00
2023-05-24T07:07:47.507Z,2897.00
2023-05-24T07:08:47.563Z,2901.00
2023-05-24T07:09:47.594Z,2909.00
2023-05-24T07:10:47.591Z,2911.00
2023-05-24T07:11:47.604Z,2919.00
2023-05-24T07:12:47.548Z,2929.00
2023-05-24T07:13:47.550Z,2952.00
2023-05-24T07:14:47.532Z,2988.00
2023-05-24T07:15:47.551Z,2974.00
2023-05-24T07:16:47.606Z,2987.00
2023-05-24T07:17:47.545Z,2983.00
2023-05-24T07:18:47.486Z,2917.00
2023-05-24T07:19:47.488Z,2943.00
2023-05-24T07:20:48.002Z,2938.00
2023-05-24T07:21:47.517Z,2937.00
2023-05-24T07:22:47.581Z,2949.00
2023-05-24T07:23:47.538Z,2927.00
2023-05-24T07:24:47.578Z,2912.00
2023-05-24T07:25:47.619Z,2910.00
2023-05-24T07:26:47.656Z,2862.00
2023-05-24T07:27:47.699Z,2866.00
2023-05-24T07:28:47.734Z,2816.00
2023-05-24T07:29:48.510Z,2733.00
2023-05-24T07:30:48.061Z,2701.00
2023-05-24T07:31:48.748Z,2683.00
2023-05-24T07:32:47.995Z,2660.00
2023-05-24T07:33:47.939Z,2605.00
2023-05-24T07:34:47.935Z,2570.00
2023-05-24T07:35:47.967Z,2550.00
2023-05-24T07:36:48.082Z,2548.00
2023-05-24T07:37:48.043Z,2549.00
2023-05-24T07:38:47.983Z,2540.00
2023-05-24T07:39:47.964Z,2435.00
2023-05-24T07:40:48.052Z,1906.00
2023-05-24T07:41:48.012Z,1811.00
2023-05-24T07:42:47.939Z,1857.00
2023-05-24T07:43:47.971Z,1948.00
2023-05-24T07:44:47.921Z,1993.00
2023-05-24T07:45:47.980Z,1997.00
2023-05-24T07:46:47.941Z,2004.00
2023-05-24T07:47:48.067Z,2044.00
2023-05-24T07:48:48.208Z,2075.00
2023-05-24T07:49:48.030Z,2108.00
2023-05-24T07:50:48.063Z,2138.00
2023-05-24T07:51:48.083Z,2168.00
2023-05-24T07:52:48.145Z,2216.00
2023-05-24T07:53:48.219Z,2254.00
2023-05-24T07:54:48.140Z,2297.00
2023-05-24T07:55:48.178Z,2370.00
2023-05-24T07:56:48.254Z,2386.00
2023-05-24T07:57:48.180Z,2433.00
2023-05-24T07:58:48.192Z,2514.00
2023-05-24T07:59:48.223Z,2568.00
2023-05-24T08:00:48.223Z,2567.00
2023-05-24T08:01:48.697Z,2521.00
2023-05-24T08:02:48.297Z,2475.00
2023-05-24T08:03:48.400Z,2463.00
2023-05-24T08:04:48.264Z,2388.00
2023-05-24T08:05:48.271Z,2372.00
2023-05-24T08:06:48.317Z,2218.00
2023-05-24T08:07:48.376Z,2241.00
2023-05-24T08:08:48.303Z,2188.00
2023-05-24T08:09:48.311Z,2157.00
2023-05-24T08:10:48.326Z,2040.00
2023-05-24T08:11:48.357Z,2032.00
2023-05-24T08:12:48.332Z,2022.00
2023-05-24T08:13:48.369Z,2003.00
2023-05-24T08:14:48.356Z,1977.00
2023-05-24T08:15:48.378Z,1973.00
2023-05-24T08:16:48.427Z,1964.00
2023-05-24T08:17:48.460Z,1924.00
2023-05-24T08:18:48.389Z,1854.00
2023-05-24T08:19:48.406Z,1712.00
2023-05-24T08:20:48.531Z,1704.00
2023-05-24T08:21:48.427Z,1782.00
2023-05-24T08:22:48.461Z,1739.00
2023-05-24T08:23:48.467Z,1713.00
2023-05-24T08:24:48.490Z,1736.00
2023-05-24T08:25:48.642Z,1748.00
2023-05-24T08:26:48.519Z,1751.00
2023-05-24T08:27:48.565Z,1748.00
2023-05-24T08:28:48.579Z,1755.00
2023-05-24T08:29:48.539Z,1775.00
2023-05-24T08:30:48.556Z,1363.00
2023-05-24T08:31:48.553Z,1290.00
2023-05-24T08:32:48.637Z,1244.00
2023-05-24T08:33:48.562Z,1075.00
2023-05-24T08:34:48.562Z,1116.00
2023-05-24T08:35:49.211Z,996.00
2023-05-24T08:36:48.607Z,897.00
2023-05-24T08:37:48.657Z,932.00
2023-05-24T08:38:48.660Z,816.00
2023-05-24T08:39:48.662Z,752.00
2023-05-24T08:40:48.701Z,750.00
2023-05-24T08:42:01.037Z,736.00
2023-05-24T08:42:49.791Z,690.00
2023-05-24T08:43:48.799Z,643.00
2023-05-24T08:44:48.849Z,649.00
2023-05-24T08:45:48.924Z,669.00
2023-05-24T08:46:48.994Z,792.00
2023-05-24T08:47:49.034Z,913.00
2023-05-24T08:48:48.951Z,991.00
2023-05-24T08:49:49.056Z,1165.00
2023-05-24T08:50:48.961Z,1331.00
2023-05-24T08:51:50.840Z,1495.00
2023-05-24T08:52:49.082Z,1666.00
2023-05-24T08:53:49.187Z,1809.00
2023-05-24T08:54:49.159Z,1939.00
2023-05-24T08:55:49.221Z,2030.00
2023-05-24T08:56:49.242Z,2101.00
2023-05-24T08:57:49.279Z,2140.00
2023-05-24T08:58:49.282Z,2148.00
2023-05-24T08:59:49.320Z,2182.00
2023-05-24T09:00:49.362Z,2220.00
2023-05-24T09:01:49.365Z,2248.00
2023-05-24T09:02:49.299Z,2250.00
2023-05-24T09:03:49.340Z,2257.00
2023-05-24T09:04:49.304Z,2279.00
2023-05-24T09:05:49.307Z,2318.00
2023-05-24T09:06:49.719Z,2374.00
2023-05-24T09:07:49.483Z,2374.00
2023-05-24T09:08:49.373Z,2388.00
2023-05-24T09:09:49.302Z,2389.00
2023-05-24T09:10:55.638Z,2394.00
2023-05-24T09:11:50.332Z,2391.00
2023-05-24T09:12:49.363Z,2391.00
2023-05-24T09:13:49.305Z,2402.00
2023-05-24T09:14:49.309Z,2428.00
2023-05-24T09:15:49.379Z,2458.00
2023-05-24T09:16:49.342Z,2524.00
2023-05-24T09:17:49.362Z,2527.00
2023-05-24T09:18:49.396Z,2545.00
2023-05-24T09:19:49.344Z,2562.00
2023-05-24T09:20:49.384Z,2561.00
2023-05-24T09:21:49.331Z,2570.00
2023-05-24T09:22:49.392Z,2593.00
2023-05-24T09:23:49.350Z,2600.00
2023-05-24T09:24:49.360Z,2606.00
2023-05-24T09:25:49.342Z,2599.00
2023-05-24T09:26:49.340Z,2592.00
2023-05-24T09:27:49.469Z,2594.00
2023-05-24T09:28:49.328Z,2590.00
2023-05-24T09:29:49.349Z,2578.00
2023-05-24T09:30:49.342Z,2592.00
2023-05-24T09:31:49.411Z,2577.00
2023-05-24T09:32:49.369Z,2570.00
2023-05-24T09:33:49.317Z,2593.00
2023-05-24T09:34:49.352Z,2589.00
2023-05-24T09:35:49.345Z,2593.00
2023-05-24T09:36:49.338Z,2625.00
2023-05-24T09:37:49.362Z,2615.00
2023-05-24T09:38:49.361Z,2613.00
2023-05-24T09:39:49.355Z,2622.00
2023-05-24T09:40:49.342Z,2633.00
2023-05-24T09:41:49.682Z,2668.00
2023-05-24T09:42:49.333Z,2744.00
2023-05-24T09:43:49.364Z,2238.00
2023-05-24T09:44:49.357Z,2326.00
2023-05-24T09:45:49.604Z,2144.00
2023-05-24T09:46:49.494Z,2106.00
2023-05-24T09:47:49.414Z,1969.00
2023-05-24T09:48:49.450Z,1923.00
2023-05-24T09:49:49.458Z,1958.00
2023-05-24T09:50:49.470Z,1927.00
2023-05-24T09:51:49.589Z,1843.00
2023-05-24T09:52:49.549Z,1859.00
2023-05-24T09:53:49.683Z,1805.00
2023-05-24T09:54:49.627Z,1716.00
2023-05-24T09:55:49.675Z,1603.00
2023-05-24T09:56:49.699Z,1654.00
2023-05-24T09:57:49.723Z,1696.00
2023-05-24T09:58:49.851Z,1767.00
2023-05-24T09:59:49.904Z,1670.00
2023-05-24T10:00:50.017Z,1735.00
2023-05-24T10:01:50.167Z,1665.00
2023-05-24T10:02:53.061Z,1647.00
2023-05-24T10:03:50.278Z,1645.00
2023-05-24T10:04:50.308Z,1714.00
2023-05-24T10:05:50.226Z,1802.00
2023-05-24T10:06:50.265Z,2003.00
2023-05-24T10:07:50.277Z,2152.00
2023-05-24T10:08:50.333Z,2241.00
2023-05-24T10:09:50.392Z,2245.00
2023-05-24T10:10:50.336Z,2268.00
2023-05-24T10:11:50.627Z,2327.00
2023-05-24T10:12:50.338Z,2421.00
2023-05-24T10:13:50.383Z,2575.00
2023-05-24T10:14:50.433Z,2621.00
2023-05-24T10:15:50.440Z,2654.00
2023-05-24T10:16:50.547Z,2645.00
2023-05-24T10:17:50.506Z,2664.00
2023-05-24T10:18:50.536Z,2676.00
2023-05-24T10:19:50.480Z,2681.00
2023-05-24T10:20:51.071Z,2696.00
2023-05-24T10:21:50.571Z,2725.00
2023-05-24T10:22:50.603Z,2757.00
2023-05-24T10:23:50.504Z,2798.00
2023-05-24T10:24:50.681Z,2841.00
2023-05-24T10:25:50.500Z,2872.00
2023-05-24T10:26:50.544Z,2873.00
2023-05-24T10:27:50.533Z,2880.00
2023-05-24T10:28:50.525Z,2898.00
2023-05-24T10:29:50.556Z,2932.00
2023-05-24T10:30:50.680Z,3005.00
2023-05-24T10:31:50.596Z,3015.00
2023-05-24T10:32:50.634Z,3036.00
2023-05-24T10:33:50.586Z,3063.00
2023-05-24T10:34:50.604Z,3060.00
2023-05-24T10:35:50.662Z,3078.00
2023-05-24T10:36:50.750Z,3071.00
2023-05-24T10:37:50.788Z,3075.00
2023-05-24T10:38:50.791Z,3074.00
2023-05-24T10:39:50.817Z,3066.00
2023-05-24T10:40:50.980Z,3078.00
2023-05-24T10:41:50.859Z,3078.00
2023-05-24T10:42:50.825Z,3091.00
2023-05-24T10:44:04.857Z,3121.00
2023-05-24T10:44:51.834Z,3081.00
2023-05-24T10:45:50.901Z,3101.00
2023-05-24T10:46:50.836Z,3144.00
2023-05-24T10:47:50.884Z,3215.00
2023-05-24T10:48:50.812Z,3310.00
2023-05-24T10:49:50.826Z,3325.00
2023-05-24T10:50:50.890Z,3348.00
2023-05-24T10:51:50.824Z,3379.00
2023-05-24T10:52:50.839Z,3416.00
2023-05-24T10:53:50.817Z,3452.00
2023-05-24T10:55:03.268Z,3482.00
2023-05-24T10:55:51.840Z,3483.00
2023-05-24T10:56:50.818Z,3486.00
2023-05-24T10:57:50.818Z,3504.00
2023-05-24T10:58:50.814Z,3537.00
2023-05-24T10:59:50.880Z,3564.00
2023-05-24T11:00:50.946Z,3597.00
2023-05-24T11:01:50.863Z,3587.00
2023-05-24T11:02:50.858Z,3594.00
2023-05-24T11:03:50.822Z,3583.00
2023-05-24T11:04:50.824Z,3653.00
2023-05-24T11:05:50.987Z,3705.00
2023-05-24T11:06:50.870Z,3711.00
2023-05-24T11:07:50.803Z,3721.00
2023-05-24T11:08:50.800Z,3721.00
2023-05-24T11:09:50.799Z,3727.00
2023-05-24T11:10:50.788Z,3742.00
2023-05-24T11:11:50.809Z,3771.00
2023-05-24T11:12:50.841Z,3808.00
2023-05-24T11:13:50.876Z,3819.00
2023-05-24T11:14:50.805Z,3838.00
2023-05-24T11:15:50.826Z,3815.00
2023-05-24T11:16:50.843Z,3821.00
2023-05-24T11:17:50.854Z,3813.00
2023-05-24T11:18:50.756Z,3820.00
2023-05-24T11:19:50.808Z,3816.00
2023-05-24T11:20:50.822Z,3812.00
2023-05-24T11:21:50.725Z,3802.00
2023-05-24T11:22:50.722Z,3809.00
2023-05-24T11:23:50.674Z,3805.00
2023-05-24T11:24:50.692Z,3806.00
2023-05-24T11:25:50.626Z,3811.00
2023-05-24T11:26:50.631Z,3835.00
2023-05-24T11:27:50.728Z,3863.00
2023-05-24T11:28:50.566Z,3919.00
2023-05-24T11:29:50.606Z,3912.00
2023-05-24T11:30:50.621Z,3914.00
2023-05-24T11:31:50.535Z,3902.00
2023-05-24T11:32:50.515Z,3875.00
2023-05-24T11:33:50.461Z,3831.00
2023-05-24T11:34:50.510Z,3825.00
2023-05-24T11:35:50.438Z,3803.00
2023-05-24T11:36:50.414Z,3782.00
2023-05-24T11:37:50.389Z,3754.00
2023-05-24T11:38:50.384Z,3724.00
2023-05-24T11:39:50.359Z,3701.00
2023-05-24T11:40:50.329Z,3672.00
2023-05-24T11:41:50.358Z,3661.00
2023-05-24T11:42:50.314Z,3620.00
2023-05-24T11:43:50.290Z,3586.00
2023-05-24T11:44:50.284Z,3575.00
2023-05-24T11:45:50.319Z,3526.00
2023-05-24T11:46:50.297Z,3508.00
2023-05-24T11:47:50.247Z,3460.00
2023-05-24T11:48:50.231Z,3460.00
2023-05-24T11:49:50.182Z,3460.00
2023-05-24T11:50:50.645Z,3414.00
2023-05-24T11:51:50.169Z,3387.00
2023-05-24T11:52:50.145Z,3358.00
2023-05-24T11:54:50.139Z,3289.00
2023-05-24T11:55:50.139Z,3287.00
2023-05-24T11:56:50.114Z,3271.00
2023-05-24T11:57:50.063Z,3238.00
2023-05-24T11:58:50.070Z,3214.00
2023-05-24T11:59:50.029Z,3183.00
2023-05-24T12:00:50.010Z,3143.00
2023-05-24T12:01:50.032Z,3124.00
2023-05-24T12:02:50.131Z,3094.00
2023-05-24T12:03:50.395Z,3057.00
2023-05-24T12:04:50.227Z,3023.00
2023-05-24T12:05:50.195Z,2996.00
2023-05-24T12:06:50.213Z,2978.00
2023-05-24T12:07:50.266Z,2959.00